sensor_id;sensor_type;location;lat;lon;timestamp;pressure;altitude;pressure_sealevel;temperature;humidity
10824;BME280;39116;59.332;18.034;2023-03-19T00:02:17;100868.03;;;3.56;100.00
10824;BME280;39116;59.332;18.034;2023-03-19T00:04:40;100861.94;;;3.54;100.00
10824;BME280;39116;59.332;18.034;2023-03-19T00:07:01;100862.03;;;3.57;100.00
10824;BME280;39116;59.332;18.034;2023-03-19T00:09:23;100865.09;;;3.69;100.00
10824;BME280;39116;59.332;18.034;2023-03-19T00:11:47;100857.47;;;3.50;100.00
10824;BME280;39116;59.332;18.034;2023-03-19T00:14:09;100867.66;;;3.47;100.00
10824;BME280;39116;59.332;18.034;2023-03-19T00:16:31;100868.69;;;3.29;100.00
10824;BME280;39116;59.332;18.034;2023-03-19T00:18:53;100869.66;;;3.54;100.00
10824;BME280;39116;59.332;18.034;2023-03-19T00:21:15;100875.06;;;3.39;100.00
10824;BME280;39116;59.332;18.034;2023-03-19T00:23:37;100881.22;;;3.42;100.00
10824;BME280;39116;59.332;18.034;2023-03-19T00:25:59;100881.63;;;3.10;100.00
10824;BME280;39116;59.332;18.034;2023-03-19T00:28:23;100877.34;;;3.10;100.00
10824;BME280;39116;59.332;18.034;2023-03-19T00:30:45;100874.84;;;3.12;100.00
10824;BME280;39116;59.332;18.034;2023-03-19T00:33:07;100877.84;;;3.01;100.00
10824;BME280;39116;59.332;18.034;2023-03-19T00:35:29;100863.97;;;2.96;100.00
10824;BME280;39116;59.332;18.034;2023-03-19T00:37:51;100870.91;;;2.99;100.00
10824;BME280;39116;59.332;18.034;2023-03-19T00:40:13;100886.13;;;2.94;100.00
10824;BME280;39116;59.332;18.034;2023-03-19T00:42:35;100889.84;;;3.01;100.00
10824;BME280;39116;59.332;18.034;2023-03-19T00:44:58;100890.06;;;3.05;100.00
10824;BME280;39116;59.332;18.034;2023-03-19T00:47:20;100891.41;;;2.97;100.00
10824;BME280;39116;59.332;18.034;2023-03-19T00:49:42;100890.91;;;3.06;100.00
10824;BME280;39116;59.332;18.034;2023-03-19T00:52:04;100888.78;;;3.17;100.00
10824;BME280;39116;59.332;18.034;2023-03-19T00:54:26;100895.44;;;3.12;100.00
10824;BME280;39116;59.332;18.034;2023-03-19T00:56:48;100894.44;;;3.08;100.00
10824;BME280;39116;59.332;18.034;2023-03-19T00:59:10;100905.22;;;2.99;100.00
10824;BME280;39116;59.332;18.034;2023-03-19T01:01:33;100907.03;;;3.23;100.00
10824;BME280;39116;59.332;18.034;2023-03-19T01:03:55;100905.72;;;3.12;100.00
10824;BME280;39116;59.332;18.034;2023-03-19T01:06:18;100913.00;;;3.22;100.00
10824;BME280;39116;59.332;18.034;2023-03-19T01:08:40;100898.16;;;3.37;100.00
10824;BME280;39116;59.332;18.034;2023-03-19T01:11:07;100902.63;;;3.41;100.00
10824;BME280;39116;59.332;18.034;2023-03-19T01:13:29;100914.47;;;3.59;100.00
10824;BME280;39116;59.332;18.034;2023-03-19T01:15:51;100912.00;;;3.62;100.00
10824;BME280;39116;59.332;18.034;2023-03-19T01:18:15;100907.91;;;3.67;100.00
10824;BME280;39116;59.332;18.034;2023-03-19T01:20:38;100912.50;;;3.52;100.00
10824;BME280;39116;59.332;18.034;2023-03-19T01:23:00;100903.34;;;3.60;100.00
10824;BME280;39116;59.332;18.034;2023-03-19T01:25:22;100899.25;;;3.65;100.00
10824;BME280;39116;59.332;18.034;2023-03-19T01:27:44;100899.72;;;3.55;100.00
10824;BME280;39116;59.332;18.034;2023-03-19T01:30:07;100900.91;;;3.63;100.00
10824;BME280;39116;59.332;18.034;2023-03-19T01:32:30;100877.84;;;3.43;100.00
10824;BME280;39116;59.332;18.034;2023-03-19T01:34:53;100902.63;;;3.64;100.00
10824;BME280;39116;59.332;18.034;2023-03-19T01:37:15;100905.22;;;3.64;100.00
10824;BME280;39116;59.332;18.034;2023-03-19T01:39:37;100910.19;;;3.59;100.00
10824;BME280;39116;59.332;18.034;2023-03-19T01:42:01;100914.06;;;3.71;100.00
10824;BME280;39116;59.332;18.034;2023-03-19T01:44:24;100914.75;;;4.12;100.00
10824;BME280;39116;59.332;18.034;2023-03-19T01:46:47;100910.63;;;3.70;100.00
10824;BME280;39116;59.332;18.034;2023-03-19T01:49:10;100903.59;;;3.89;100.00
10824;BME280;39116;59.332;18.034;2023-03-19T01:51:38;100913.56;;;4.04;100.00
10824;BME280;39116;59.332;18.034;2023-03-19T01:54:04;100914.13;;;3.95;100.00
10824;BME280;39116;59.332;18.034;2023-03-19T01:56:29;100914.22;;;3.98;100.00
10824;BME280;39116;59.332;18.034;2023-03-19T01:58:56;100918.81;;;3.82;100.00
10824;BME280;39116;59.332;18.034;2023-03-19T02:01:18;100923.13;;;4.06;100.00
10824;BME280;39116;59.332;18.034;2023-03-19T02:03:40;100923.84;;;4.02;100.00
10824;BME280;39116;59.332;18.034;2023-03-19T02:06:03;100918.50;;;3.97;100.00
10824;BME280;39116;59.332;18.034;2023-03-19T02:08:27;100918.16;;;3.88;100.00
10824;BME280;39116;59.332;18.034;2023-03-19T02:10:51;100942.34;;;3.92;100.00
10824;BME280;39116;59.332;18.034;2023-03-19T02:13:15;100927.47;;;3.85;100.00
10824;BME280;39116;59.332;18.034;2023-03-19T02:15:37;100913.38;;;4.21;100.00
10824;BME280;39116;59.332;18.034;2023-03-19T02:17:59;100928.16;;;4.03;100.00
10824;BME280;39116;59.332;18.034;2023-03-19T02:20:25;100917.59;;;4.19;100.00
10824;BME280;39116;59.332;18.034;2023-03-19T02:22:51;100925.25;;;4.16;100.00
10824;BME280;39116;59.332;18.034;2023-03-19T02:25:23;100922.22;;;4.04;100.00
10824;BME280;39116;59.332;18.034;2023-03-19T02:27:49;100920.44;;;4.26;100.00
10824;BME280;39116;59.332;18.034;2023-03-19T02:30:20;100921.72;;;4.14;100.00
10824;BME280;39116;59.332;18.034;2023-03-19T02:32:42;100923.06;;;4.27;100.00
10824;BME280;39116;59.332;18.034;2023-03-19T02:35:05;100929.22;;;4.08;100.00
10824;BME280;39116;59.332;18.034;2023-03-19T02:37:29;100919.44;;;4.22;100.00
10824;BME280;39116;59.332;18.034;2023-03-19T02:39:54;100928.97;;;4.25;100.00
10824;BME280;39116;59.332;18.034;2023-03-19T02:42:20;100934.50;;;4.11;100.00
10824;BME280;39116;59.332;18.034;2023-03-19T02:44:44;100944.78;;;3.89;100.00
10824;BME280;39116;59.332;18.034;2023-03-19T02:47:07;100938.34;;;4.00;100.00
10824;BME280;39116;59.332;18.034;2023-03-19T02:49:29;100942.09;;;4.08;100.00
10824;BME280;39116;59.332;18.034;2023-03-19T02:51:51;100939.06;;;4.18;100.00
10824;BME280;39116;59.332;18.034;2023-03-19T02:54:13;100938.16;;;4.18;100.00
10824;BME280;39116;59.332;18.034;2023-03-19T02:56:35;100952.81;;;3.96;100.00
10824;BME280;39116;59.332;18.034;2023-03-19T02:58:57;100953.19;;;4.06;100.00
10824;BME280;39116;59.332;18.034;2023-03-19T03:01:20;100956.97;;;4.38;100.00
10824;BME280;39116;59.332;18.034;2023-03-19T03:03:42;100963.72;;;4.12;100.00
10824;BME280;39116;59.332;18.034;2023-03-19T03:06:04;100966.56;;;4.19;100.00
10824;BME280;39116;59.332;18.034;2023-03-19T03:08:26;100970.81;;;3.95;100.00
10824;BME280;39116;59.332;18.034;2023-03-19T03:10:48;100971.16;;;4.04;100.00
10824;BME280;39116;59.332;18.034;2023-03-19T03:13:10;100971.19;;;3.83;100.00
10824;BME280;39116;59.332;18.034;2023-03-19T03:15:33;100966.69;;;3.77;100.00
10824;BME280;39116;59.332;18.034;2023-03-19T03:17:56;100978.63;;;3.98;100.00
10824;BME280;39116;59.332;18.034;2023-03-19T03:20:18;100974.91;;;3.90;100.00
10824;BME280;39116;59.332;18.034;2023-03-19T03:22:40;100977.56;;;3.93;100.00
10824;BME280;39116;59.332;18.034;2023-03-19T03:25:03;100974.28;;;3.74;100.00
10824;BME280;39116;59.332;18.034;2023-03-19T03:27:24;100985.56;;;3.55;100.00
10824;BME280;39116;59.332;18.034;2023-03-19T03:29:47;100984.00;;;3.59;100.00
10824;BME280;39116;59.332;18.034;2023-03-19T03:32:09;100988.66;;;3.69;100.00
10824;BME280;39116;59.332;18.034;2023-03-19T03:34:37;100990.16;;;3.64;100.00
10824;BME280;39116;59.332;18.034;2023-03-19T03:36:58;100976.06;;;3.75;100.00
10824;BME280;39116;59.332;18.034;2023-03-19T03:39:20;100982.00;;;3.74;100.00
10824;BME280;39116;59.332;18.034;2023-03-19T03:41:43;100943.47;;;3.55;100.00
10824;BME280;39116;59.332;18.034;2023-03-19T03:44:05;100960.59;;;3.75;100.00
10824;BME280;39116;59.332;18.034;2023-03-19T03:46:27;100977.94;;;4.02;100.00
10824;BME280;39116;59.332;18.034;2023-03-19T03:48:50;100978.50;;;4.17;100.00
10824;BME280;39116;59.332;18.034;2023-03-19T03:51:13;100978.97;;;4.07;100.00
10824;BME280;39116;59.332;18.034;2023-03-19T03:53:35;100981.03;;;4.16;100.00
10824;BME280;39116;59.332;18.034;2023-03-19T03:55:57;100978.56;;;4.19;100.00
10824;BME280;39116;59.332;18.034;2023-03-19T03:58:19;100967.88;;;4.08;100.00
10824;BME280;39116;59.332;18.034;2023-03-19T04:00:41;100967.50;;;4.21;100.00
10824;BME280;39116;59.332;18.034;2023-03-19T04:03:03;100971.38;;;4.33;100.00
10824;BME280;39116;59.332;18.034;2023-03-19T04:05:25;100967.34;;;4.41;100.00
10824;BME280;39116;59.332;18.034;2023-03-19T04:07:48;100966.28;;;4.58;100.00
10824;BME280;39116;59.332;18.034;2023-03-19T04:10:11;100971.38;;;4.57;100.00
10824;BME280;39116;59.332;18.034;2023-03-19T04:12:33;100982.72;;;4.38;100.00
10824;BME280;39116;59.332;18.034;2023-03-19T04:14:57;100975.59;;;4.31;100.00
10824;BME280;39116;59.332;18.034;2023-03-19T04:17:19;100994.56;;;4.33;100.00
10824;BME280;39116;59.332;18.034;2023-03-19T04:19:41;100981.09;;;4.40;100.00
10824;BME280;39116;59.332;18.034;2023-03-19T04:22:03;100942.44;;;4.17;100.00
10824;BME280;39116;59.332;18.034;2023-03-19T04:24:28;100944.91;;;4.14;100.00
10824;BME280;39116;59.332;18.034;2023-03-19T04:26:50;100982.81;;;4.41;100.00
10824;BME280;39116;59.332;18.034;2023-03-19T04:29:12;100967.03;;;4.32;100.00
10824;BME280;39116;59.332;18.034;2023-03-19T04:31:35;100981.09;;;4.40;100.00
10824;BME280;39116;59.332;18.034;2023-03-19T04:33:57;100986.94;;;4.36;100.00
10824;BME280;39116;59.332;18.034;2023-03-19T04:36:19;100989.50;;;4.36;100.00
10824;BME280;39116;59.332;18.034;2023-03-19T04:38:42;100991.28;;;4.37;100.00
10824;BME280;39116;59.332;18.034;2023-03-19T04:41:05;100980.78;;;4.32;100.00
10824;BME280;39116;59.332;18.034;2023-03-19T04:43:27;100982.16;;;4.47;100.00
10824;BME280;39116;59.332;18.034;2023-03-19T04:45:49;100975.19;;;4.20;100.00
10824;BME280;39116;59.332;18.034;2023-03-19T04:48:11;100985.28;;;3.93;100.00
10824;BME280;39116;59.332;18.034;2023-03-19T04:50:33;100977.13;;;3.80;100.00
10824;BME280;39116;59.332;18.034;2023-03-19T04:52:55;100993.94;;;3.72;100.00
10824;BME280;39116;59.332;18.034;2023-03-19T04:55:17;101005.81;;;3.90;100.00
10824;BME280;39116;59.332;18.034;2023-03-19T04:57:41;101001.72;;;3.95;100.00
10824;BME280;39116;59.332;18.034;2023-03-19T05:00:03;100998.94;;;3.90;100.00
10824;BME280;39116;59.332;18.034;2023-03-19T05:02:26;100996.78;;;4.01;100.00
10824;BME280;39116;59.332;18.034;2023-03-19T05:04:48;100994.91;;;3.97;100.00
10824;BME280;39116;59.332;18.034;2023-03-19T05:07:10;100995.72;;;3.96;100.00
10824;BME280;39116;59.332;18.034;2023-03-19T05:09:32;100996.72;;;3.99;100.00
10824;BME280;39116;59.332;18.034;2023-03-19T05:11:54;101003.06;;;4.08;100.00
10824;BME280;39116;59.332;18.034;2023-03-19T05:14:17;101001.41;;;4.10;100.00
10824;BME280;39116;59.332;18.034;2023-03-19T05:16:39;101004.16;;;4.14;100.00
10824;BME280;39116;59.332;18.034;2023-03-19T05:19:01;101004.09;;;3.90;100.00
10824;BME280;39116;59.332;18.034;2023-03-19T05:21:23;100994.03;;;3.96;100.00
10824;BME280;39116;59.332;18.034;2023-03-19T05:23:46;101000.94;;;3.97;100.00
10824;BME280;39116;59.332;18.034;2023-03-19T05:26:11;100993.41;;;4.02;100.00
10824;BME280;39116;59.332;18.034;2023-03-19T05:28:33;100995.78;;;3.97;100.00
10824;BME280;39116;59.332;18.034;2023-03-19T05:30:57;101002.28;;;3.88;100.00
10824;BME280;39116;59.332;18.034;2023-03-19T05:33:18;101010.97;;;3.90;100.00
10824;BME280;39116;59.332;18.034;2023-03-19T05:35:41;101019.16;;;4.02;100.00
10824;BME280;39116;59.332;18.034;2023-03-19T05:38:04;101023.84;;;4.12;100.00
10824;BME280;39116;59.332;18.034;2023-03-19T05:40:25;101026.59;;;4.17;100.00
10824;BME280;39116;59.332;18.034;2023-03-19T05:42:48;100861.78;;;3.28;100.00
10824;BME280;39116;59.332;18.034;2023-03-19T05:45:10;101023.78;;;4.11;100.00
10824;BME280;39116;59.332;18.034;2023-03-19T05:47:33;101037.91;;;4.20;100.00
10824;BME280;39116;59.332;18.034;2023-03-19T05:49:55;101030.22;;;3.99;100.00
10824;BME280;39116;59.332;18.034;2023-03-19T05:52:17;101030.31;;;4.24;100.00
10824;BME280;39116;59.332;18.034;2023-03-19T05:54:39;101040.22;;;4.14;100.00
10824;BME280;39116;59.332;18.034;2023-03-19T05:57:01;101045.22;;;4.10;100.00
10824;BME280;39116;59.332;18.034;2023-03-19T05:59:23;101045.22;;;4.10;100.00
10824;BME280;39116;59.332;18.034;2023-03-19T06:01:45;101042.94;;;4.40;100.00
10824;BME280;39116;59.332;18.034;2023-03-19T06:04:09;101059.94;;;4.35;100.00
10824;BME280;39116;59.332;18.034;2023-03-19T06:06:30;101053.81;;;4.10;100.00
10824;BME280;39116;59.332;18.034;2023-03-19T06:08:52;101055.09;;;3.78;100.00
10824;BME280;39116;59.332;18.034;2023-03-19T06:11:14;101062.03;;;3.58;100.00
10824;BME280;39116;59.332;18.034;2023-03-19T06:13:36;101064.03;;;3.65;100.00
10824;BME280;39116;59.332;18.034;2023-03-19T06:15:58;101050.28;;;3.65;100.00
10824;BME280;39116;59.332;18.034;2023-03-19T06:18:20;101063.53;;;3.95;100.00
10824;BME280;39116;59.332;18.034;2023-03-19T06:20:45;101080.13;;;3.80;100.00
10824;BME280;39116;59.332;18.034;2023-03-19T06:23:07;101078.38;;;3.39;100.00
10824;BME280;39116;59.332;18.034;2023-03-19T06:25:29;100947.84;;;2.94;100.00
10824;BME280;39116;59.332;18.034;2023-03-19T06:27:51;101073.25;;;3.60;100.00
10824;BME280;39116;59.332;18.034;2023-03-19T06:30:13;101074.84;;;3.77;100.00
10824;BME280;39116;59.332;18.034;2023-03-19T06:32:36;101075.13;;;3.85;100.00
10824;BME280;39116;59.332;18.034;2023-03-19T06:34:57;101074.34;;;3.86;100.00
10824;BME280;39116;59.332;18.034;2023-03-19T06:37:21;100878.41;;;2.33;100.00
10824;BME280;39116;59.332;18.034;2023-03-19T06:39:43;101080.97;;;3.60;100.00
10824;BME280;39116;59.332;18.034;2023-03-19T06:42:05;101083.41;;;3.57;100.00
10824;BME280;39116;59.332;18.034;2023-03-19T06:44:27;101090.28;;;3.77;100.00
10824;BME280;39116;59.332;18.034;2023-03-19T06:46:49;101076.59;;;3.78;100.00
10824;BME280;39116;59.332;18.034;2023-03-19T06:49:11;101082.94;;;3.87;100.00
10824;BME280;39116;59.332;18.034;2023-03-19T06:51:33;101091.28;;;4.02;100.00
10824;BME280;39116;59.332;18.034;2023-03-19T06:53:57;101060.53;;;3.63;100.00
10824;BME280;39116;59.332;18.034;2023-03-19T06:56:19;100953.59;;;3.29;100.00
10824;BME280;39116;59.332;18.034;2023-03-19T06:58:41;101092.31;;;4.06;100.00
10824;BME280;39116;59.332;18.034;2023-03-19T07:01:03;101061.13;;;3.78;100.00
10824;BME280;39116;59.332;18.034;2023-03-19T07:03:25;101097.91;;;4.18;100.00
10824;BME280;39116;59.332;18.034;2023-03-19T07:05:49;101083.59;;;4.25;100.00
10824;BME280;39116;59.332;18.034;2023-03-19T07:08:11;101087.56;;;4.39;100.00
10824;BME280;39116;59.332;18.034;2023-03-19T07:10:34;101094.72;;;4.24;100.00
10824;BME280;39116;59.332;18.034;2023-03-19T07:12:56;101098.56;;;4.12;100.00
10824;BME280;39116;59.332;18.034;2023-03-19T07:15:18;101093.16;;;4.06;100.00
10824;BME280;39116;59.332;18.034;2023-03-19T07:17:40;101107.75;;;3.85;100.00
10824;BME280;39116;59.332;18.034;2023-03-19T07:20:05;101110.28;;;4.27;100.00
10824;BME280;39116;59.332;18.034;2023-03-19T07:22:27;101110.00;;;3.98;100.00
10824;BME280;39116;59.332;18.034;2023-03-19T07:24:49;101112.63;;;4.20;100.00
10824;BME280;39116;59.332;18.034;2023-03-19T07:27:13;101112.38;;;4.14;100.00
10824;BME280;39116;59.332;18.034;2023-03-19T07:29:36;101110.00;;;4.19;100.00
10824;BME280;39116;59.332;18.034;2023-03-19T07:31:57;101111.00;;;4.23;100.00
10824;BME280;39116;59.332;18.034;2023-03-19T07:34:19;101116.63;;;4.35;100.00
10824;BME280;39116;59.332;18.034;2023-03-19T07:36:42;101019.00;;;4.20;100.00
10824;BME280;39116;59.332;18.034;2023-03-19T07:39:04;101087.00;;;4.69;100.00
10824;BME280;39116;59.332;18.034;2023-03-19T07:41:26;101115.34;;;4.91;100.00
10824;BME280;39116;59.332;18.034;2023-03-19T07:43:49;101092.56;;;5.04;100.00
10824;BME280;39116;59.332;18.034;2023-03-19T07:46:11;101089.09;;;5.27;100.00
10824;BME280;39116;59.332;18.034;2023-03-19T07:48:33;101108.53;;;5.42;100.00
10824;BME280;39116;59.332;18.034;2023-03-19T07:50:55;101113.91;;;5.24;100.00
10824;BME280;39116;59.332;18.034;2023-03-19T07:53:18;101109.66;;;5.24;100.00
10824;BME280;39116;59.332;18.034;2023-03-19T07:55:40;101089.09;;;5.27;100.00
10824;BME280;39116;59.332;18.034;2023-03-19T07:58:02;101112.94;;;5.44;100.00
10824;BME280;39116;59.332;18.034;2023-03-19T08:00:25;101116.09;;;5.61;100.00
10824;BME280;39116;59.332;18.034;2023-03-19T08:02:47;101128.25;;;5.40;100.00
10824;BME280;39116;59.332;18.034;2023-03-19T08:05:09;101119.41;;;5.09;100.00
10824;BME280;39116;59.332;18.034;2023-03-19T08:07:32;101132.78;;;4.98;100.00
10824;BME280;39116;59.332;18.034;2023-03-19T08:09:53;101138.06;;;5.02;100.00
10824;BME280;39116;59.332;18.034;2023-03-19T08:12:16;101136.22;;;5.46;100.00
10824;BME280;39116;59.332;18.034;2023-03-19T08:14:38;101132.69;;;5.68;100.00
10824;BME280;39116;59.332;18.034;2023-03-19T08:17:02;100998.00;;;4.80;100.00
10824;BME280;39116;59.332;18.034;2023-03-19T08:19:24;101126.59;;;5.42;100.00
10824;BME280;39116;59.332;18.034;2023-03-19T08:21:46;101125.19;;;5.50;100.00
10824;BME280;39116;59.332;18.034;2023-03-19T08:24:08;101133.31;;;5.61;100.00
10824;BME280;39116;59.332;18.034;2023-03-19T08:26:30;101126.91;;;5.75;100.00
10824;BME280;39116;59.332;18.034;2023-03-19T08:28:52;101117.03;;;5.89;100.00
10824;BME280;39116;59.332;18.034;2023-03-19T08:31:14;101120.97;;;6.03;100.00
10824;BME280;39116;59.332;18.034;2023-03-19T08:33:38;101114.72;;;6.24;100.00
10824;BME280;39116;59.332;18.034;2023-03-19T08:36:05;101117.66;;;6.07;100.00
10824;BME280;39116;59.332;18.034;2023-03-19T08:38:27;101104.56;;;5.77;100.00
10824;BME280;39116;59.332;18.034;2023-03-19T08:40:49;101116.63;;;5.77;100.00
10824;BME280;39116;59.332;18.034;2023-03-19T08:43:11;101116.75;;;6.05;100.00
10824;BME280;39116;59.332;18.034;2023-03-19T08:45:33;101120.38;;;5.86;100.00
10824;BME280;39116;59.332;18.034;2023-03-19T08:47:55;101083.13;;;6.05;100.00
10824;BME280;39116;59.332;18.034;2023-03-19T08:50:20;101124.38;;;6.02;100.00
10824;BME280;39116;59.332;18.034;2023-03-19T08:52:42;101120.13;;;6.30;100.00
10824;BME280;39116;59.332;18.034;2023-03-19T08:55:04;101113.06;;;6.26;100.00
10824;BME280;39116;59.332;18.034;2023-03-19T08:57:26;101117.84;;;6.14;100.00
10824;BME280;39116;59.332;18.034;2023-03-19T08:59:48;101126.44;;;6.13;100.00
10824;BME280;39116;59.332;18.034;2023-03-19T09:02:10;101127.06;;;5.80;100.00
10824;BME280;39116;59.332;18.034;2023-03-19T09:04:32;101132.97;;;6.01;100.00
10824;BME280;39116;59.332;18.034;2023-03-19T09:07:00;101142.94;;;5.41;100.00
10824;BME280;39116;59.332;18.034;2023-03-19T09:09:23;101140.50;;;5.69;100.00
10824;BME280;39116;59.332;18.034;2023-03-19T09:11:45;101132.72;;;5.44;100.00
10824;BME280;39116;59.332;18.034;2023-03-19T09:14:07;101149.72;;;5.63;100.00
10824;BME280;39116;59.332;18.034;2023-03-19T09:16:31;101126.63;;;5.93;100.00
10824;BME280;39116;59.332;18.034;2023-03-19T09:18:53;101142.19;;;5.95;100.00
10824;BME280;39116;59.332;18.034;2023-03-19T09:21:15;101140.28;;;6.15;100.00
10824;BME280;39116;59.332;18.034;2023-03-19T09:23:38;101126.34;;;6.37;100.00
10824;BME280;39116;59.332;18.034;2023-03-19T09:26:00;101140.97;;;6.36;100.00
10824;BME280;39116;59.332;18.034;2023-03-19T09:28:22;101121.69;;;6.25;100.00
10824;BME280;39116;59.332;18.034;2023-03-19T09:30:44;101108.81;;;6.28;100.00
10824;BME280;39116;59.332;18.034;2023-03-19T09:33:06;101140.19;;;6.66;100.00
10824;BME280;39116;59.332;18.034;2023-03-19T09:35:28;101141.97;;;6.40;100.00
10824;BME280;39116;59.332;18.034;2023-03-19T09:37:52;101137.13;;;6.79;100.00
10824;BME280;39116;59.332;18.034;2023-03-19T09:40:21;101132.22;;;6.88;100.00
10824;BME280;39116;59.332;18.034;2023-03-19T09:42:54;101139.63;;;7.06;100.00
10824;BME280;39116;59.332;18.034;2023-03-19T09:45:19;101136.28;;;7.09;100.00
10824;BME280;39116;59.332;18.034;2023-03-19T09:47:42;101142.84;;;6.98;100.00
10824;BME280;39116;59.332;18.034;2023-03-19T09:50:11;101138.81;;;7.07;100.00
10824;BME280;39116;59.332;18.034;2023-03-19T09:52:40;101123.69;;;7.23;100.00
10824;BME280;39116;59.332;18.034;2023-03-19T09:55:12;101131.81;;;7.35;100.00
10824;BME280;39116;59.332;18.034;2023-03-19T09:57:38;101125.09;;;7.42;100.00
10824;BME280;39116;59.332;18.034;2023-03-19T10:00:00;101137.72;;;7.61;100.00
10824;BME280;39116;59.332;18.034;2023-03-19T10:02:38;101136.13;;;7.67;100.00
10824;BME280;39116;59.332;18.034;2023-03-19T10:05:08;101139.94;;;7.17;100.00
10824;BME280;39116;59.332;18.034;2023-03-19T10:07:48;101131.66;;;7.62;100.00
10824;BME280;39116;59.332;18.034;2023-03-19T10:10:29;101130.31;;;7.75;100.00
10824;BME280;39116;59.332;18.034;2023-03-19T10:13:03;101128.50;;;7.73;100.00
10824;BME280;39116;59.332;18.034;2023-03-19T10:15:30;101129.31;;;8.05;100.00
10824;BME280;39116;59.332;18.034;2023-03-19T10:17:57;101130.44;;;7.81;100.00
10824;BME280;39116;59.332;18.034;2023-03-19T10:20:28;101127.25;;;7.92;100.00
10824;BME280;39116;59.332;18.034;2023-03-19T10:22:53;101114.03;;;7.81;100.00
10824;BME280;39116;59.332;18.034;2023-03-19T10:25:23;101133.97;;;8.20;100.00
10824;BME280;39116;59.332;18.034;2023-03-19T10:27:51;101124.38;;;8.51;100.00
10824;BME280;39116;59.332;18.034;2023-03-19T10:30:18;101125.97;;;8.46;100.00
10824;BME280;39116;59.332;18.034;2023-03-19T10:32:42;101124.91;;;8.39;100.00
10824;BME280;39116;59.332;18.034;2023-03-19T10:35:08;101114.09;;;8.19;100.00
10824;BME280;39116;59.332;18.034;2023-03-19T10:37:33;101122.25;;;8.36;100.00
10824;BME280;39116;59.332;18.034;2023-03-19T10:39:57;101077.63;;;8.13;100.00
10824;BME280;39116;59.332;18.034;2023-03-19T10:42:27;101115.59;;;8.46;100.00
10824;BME280;39116;59.332;18.034;2023-03-19T10:44:56;101108.03;;;8.20;100.00
10824;BME280;39116;59.332;18.034;2023-03-19T10:47:24;101098.13;;;8.38;100.00
10824;BME280;39116;59.332;18.034;2023-03-19T10:49:49;101120.38;;;8.30;100.00
10824;BME280;39116;59.332;18.034;2023-03-19T10:52:18;101125.97;;;8.46;100.00
10824;BME280;39116;59.332;18.034;2023-03-19T10:54:43;101129.47;;;8.48;100.00
10824;BME280;39116;59.332;18.034;2023-03-19T10:57:21;101129.69;;;8.57;100.00
10824;BME280;39116;59.332;18.034;2023-03-19T10:59:44;101134.34;;;7.99;100.00
10824;BME280;39116;59.332;18.034;2023-03-19T11:02:15;101146.75;;;8.46;100.00
10824;BME280;39116;59.332;18.034;2023-03-19T11:04:40;101104.66;;;7.88;100.00
10824;BME280;39116;59.332;18.034;2023-03-19T11:07:07;101136.97;;;8.37;100.00
10824;BME280;39116;59.332;18.034;2023-03-19T11:09:33;101135.59;;;8.15;100.00
10824;BME280;39116;59.332;18.034;2023-03-19T11:11:57;101137.94;;;7.71;100.00
10824;BME280;39116;59.332;18.034;2023-03-19T11:14:24;101137.69;;;7.95;100.00
10824;BME280;39116;59.332;18.034;2023-03-19T11:16:48;101139.25;;;7.88;100.00
10824;BME280;39116;59.332;18.034;2023-03-19T11:19:18;101140.59;;;8.42;100.00
10824;BME280;39116;59.332;18.034;2023-03-19T11:21:53;101134.75;;;8.51;100.00
10824;BME280;39116;59.332;18.034;2023-03-19T11:24:19;101137.34;;;8.51;100.00
10824;BME280;39116;59.332;18.034;2023-03-19T11:26:41;101132.63;;;8.72;100.00
10824;BME280;39116;59.332;18.034;2023-03-19T11:29:04;101132.91;;;8.86;100.00
10824;BME280;39116;59.332;18.034;2023-03-19T11:31:31;101131.44;;;8.97;100.00
10824;BME280;39116;59.332;18.034;2023-03-19T11:34:04;101135.06;;;8.66;100.00
10824;BME280;39116;59.332;18.034;2023-03-19T11:36:31;101131.06;;;8.81;100.00
10824;BME280;39116;59.332;18.034;2023-03-19T11:39:10;101124.56;;;8.60;100.00
10824;BME280;39116;59.332;18.034;2023-03-19T11:41:48;101122.28;;;8.75;100.00
10824;BME280;39116;59.332;18.034;2023-03-19T11:44:15;101110.78;;;8.63;100.00
10824;BME280;39116;59.332;18.034;2023-03-19T11:46:42;101105.06;;;8.79;100.00
10824;BME280;39116;59.332;18.034;2023-03-19T11:49:30;101106.59;;;8.31;100.00
10824;BME280;39116;59.332;18.034;2023-03-19T11:51:59;101104.31;;;8.45;100.00
10824;BME280;39116;59.332;18.034;2023-03-19T11:54:27;101110.06;;;8.70;100.00
10824;BME280;39116;59.332;18.034;2023-03-19T11:56:56;101103.63;;;8.51;100.00
10824;BME280;39116;59.332;18.034;2023-03-19T12:05:20;101099.13;;;8.45;100.00
10824;BME280;39116;59.332;18.034;2023-03-19T12:07:57;101099.13;;;8.44;100.00
10824;BME280;39116;59.332;18.034;2023-03-19T12:10:28;101094.41;;;8.67;100.00
10824;BME280;39116;59.332;18.034;2023-03-19T12:12:59;101102.41;;;8.74;100.00
10824;BME280;39116;59.332;18.034;2023-03-19T12:15:30;101105.22;;;8.85;100.00
10824;BME280;39116;59.332;18.034;2023-03-19T12:18:03;101100.94;;;8.48;100.00
10824;BME280;39116;59.332;18.034;2023-03-19T12:20:40;101102.25;;;8.68;100.00
10824;BME280;39116;59.332;18.034;2023-03-19T12:23:12;101090.25;;;8.73;100.00
10824;BME280;39116;59.332;18.034;2023-03-19T12:25:48;101099.91;;;8.81;100.00
10824;BME280;39116;59.332;18.034;2023-03-19T12:28:16;101102.47;;;8.79;100.00
10824;BME280;39116;59.332;18.034;2023-03-19T12:30:44;101057.22;;;8.66;100.00